sensor_id;sensor_type;location;lat;lon;timestamp;pressure;altitude;pressure_sealevel;temperature;humidity
3096;BME280;1558;42.700;23.360;2023-07-29T00:01:09;95157.19;;;20.53;64.14
3096;BME280;1558;42.700;23.360;2023-07-29T00:03:39;95145.47;;;20.46;64.47
3096;BME280;1558;42.700;23.360;2023-07-29T00:06:08;95156.34;;;20.67;64.93
3096;BME280;1558;42.700;23.360;2023-07-29T00:08:37;95131.16;;;20.86;63.52
3096;BME280;1558;42.700;23.360;2023-07-29T00:11:05;95155.38;;;20.94;63.68
3096;BME280;1558;42.700;23.360;2023-07-29T00:13:33;95131.69;;;20.63;64.14
3096;BME280;1558;42.700;23.360;2023-07-29T00:16:01;95158.63;;;20.75;64.62
3096;BME280;1558;42.700;23.360;2023-07-29T00:18:29;95161.81;;;20.70;65.39
3096;BME280;1558;42.700;23.360;2023-07-29T00:20:59;95149.94;;;20.87;64.64
3096;BME280;1558;42.700;23.360;2023-07-29T00:23:27;95135.16;;;20.74;64.55
3096;BME280;1558;42.700;23.360;2023-07-29T00:25:55;95128.88;;;20.74;64.50
3096;BME280;1558;42.700;23.360;2023-07-29T00:28:23;95149.22;;;20.80;64.24
3096;BME280;1558;42.700;23.360;2023-07-29T00:30:51;95154.72;;;20.76;64.40
3096;BME280;1558;42.700;23.360;2023-07-29T00:33:20;95150.09;;;20.63;65.11
3096;BME280;1558;42.700;23.360;2023-07-29T00:35:48;95152.31;;;20.85;65.22
3096;BME280;1558;42.700;23.360;2023-07-29T00:38:17;95129.25;;;20.79;64.69
3096;BME280;1558;42.700;23.360;2023-07-29T00:40:45;95150.63;;;21.02;63.93
3096;BME280;1558;42.700;23.360;2023-07-29T00:43:13;95021.22;;;19.90;64.64
3096;BME280;1558;42.700;23.360;2023-07-29T00:45:43;95142.69;;;20.49;65.47
3096;BME280;1558;42.700;23.360;2023-07-29T00:48:12;95132.56;;;20.46;65.75
3096;BME280;1558;42.700;23.360;2023-07-29T00:50:40;95139.91;;;20.56;65.71
3096;BME280;1558;42.700;23.360;2023-07-29T00:53:08;95093.06;;;20.37;65.93
3096;BME280;1558;42.700;23.360;2023-07-29T00:55:38;95135.91;;;20.78;66.02
3096;BME280;1558;42.700;23.360;2023-07-29T00:58:07;95144.31;;;21.16;65.63
3096;BME280;1558;42.700;23.360;2023-07-29T01:00:35;95144.88;;;21.44;64.53
3096;BME280;1558;42.700;23.360;2023-07-29T01:03:03;95147.00;;;21.23;64.02
3096;BME280;1558;42.700;23.360;2023-07-29T01:05:47;95130.28;;;21.00;64.39
3096;BME280;1558;42.700;23.360;2023-07-29T01:08:25;95088.16;;;20.72;64.50
3096;BME280;1558;42.700;23.360;2023-07-29T01:11:01;95128.88;;;20.74;65.19
3096;BME280;1558;42.700;23.360;2023-07-29T01:13:37;95109.81;;;20.53;65.96
3096;BME280;1558;42.700;23.360;2023-07-29T01:16:13;95130.22;;;20.41;66.43
3096;BME280;1558;42.700;23.360;2023-07-29T01:18:47;95144.22;;;20.61;66.65
3096;BME280;1558;42.700;23.360;2023-07-29T01:21:16;95142.13;;;20.82;66.84
3096;BME280;1558;42.700;23.360;2023-07-29T01:23:46;95138.06;;;21.12;65.92
3096;BME280;1558;42.700;23.360;2023-07-29T01:26:14;95127.91;;;21.02;64.91
3096;BME280;1558;42.700;23.360;2023-07-29T01:28:42;95140.50;;;20.96;65.56
3096;BME280;1558;42.700;23.360;2023-07-29T01:31:14;95142.13;;;20.82;65.72
3096;BME280;1558;42.700;23.360;2023-07-29T01:33:51;95130.84;;;20.73;66.27
3096;BME280;1558;42.700;23.360;2023-07-29T01:36:23;95128.03;;;20.80;66.33
3096;BME280;1558;42.700;23.360;2023-07-29T01:38:56;95120.72;;;20.60;67.05
3096;BME280;1558;42.700;23.360;2023-07-29T01:41:26;95136.34;;;20.66;66.91
3096;BME280;1558;42.700;23.360;2023-07-29T01:43:55;95075.13;;;20.25;67.32
3096;BME280;1558;42.700;23.360;2023-07-29T01:46:25;95007.66;;;19.58;67.41
3096;BME280;1558;42.700;23.360;2023-07-29T01:48:53;95130.28;;;20.27;67.89
3096;BME280;1558;42.700;23.360;2023-07-29T01:51:21;95133.03;;;20.27;68.31
3096;BME280;1558;42.700;23.360;2023-07-29T01:53:49;95136.09;;;20.33;68.43
3096;BME280;1558;42.700;23.360;2023-07-29T01:56:18;95126.75;;;20.19;68.52
3096;BME280;1558;42.700;23.360;2023-07-29T01:58:47;95136.94;;;20.30;68.82
3096;BME280;1558;42.700;23.360;2023-07-29T02:01:15;95128.28;;;20.31;68.67
3096;BME280;1558;42.700;23.360;2023-07-29T02:03:43;94981.91;;;19.24;68.88
3096;BME280;1558;42.700;23.360;2023-07-29T02:06:11;95128.69;;;20.19;69.16
3096;BME280;1558;42.700;23.360;2023-07-29T02:08:39;95148.56;;;20.55;68.67
3096;BME280;1558;42.700;23.360;2023-07-29T02:11:08;95122.38;;;20.43;68.56
3096;BME280;1558;42.700;23.360;2023-07-29T02:13:37;95144.66;;;20.52;68.67
3096;BME280;1558;42.700;23.360;2023-07-29T02:16:05;95142.22;;;20.68;68.43
3096;BME280;1558;42.700;23.360;2023-07-29T02:18:33;95131.28;;;20.65;68.60
3096;BME280;1558;42.700;23.360;2023-07-29T02:21:01;95123.59;;;20.32;67.98
3096;BME280;1558;42.700;23.360;2023-07-29T02:23:29;95150.66;;;20.22;68.38
3096;BME280;1558;42.700;23.360;2023-07-29T02:25:57;95135.47;;;19.76;69.46
3096;BME280;1558;42.700;23.360;2023-07-29T02:28:25;95154.22;;;19.81;70.45
3096;BME280;1558;42.700;23.360;2023-07-29T02:33:49;95139.78;;;19.59;71.04
3096;BME280;1558;42.700;23.360;2023-07-29T02:36:18;95144.88;;;19.57;71.77
3096;BME280;1558;42.700;23.360;2023-07-29T02:38:46;95157.38;;;19.62;72.29
3096;BME280;1558;42.700;23.360;2023-07-29T02:41:14;95109.72;;;19.48;72.39
3096;BME280;1558;42.700;23.360;2023-07-29T02:43:43;95142.16;;;19.61;72.48
3096;BME280;1558;42.700;23.360;2023-07-29T02:46:11;95140.94;;;19.79;72.72
3096;BME280;1558;42.700;23.360;2023-07-29T02:48:39;95138.94;;;19.97;72.73
3096;BME280;1558;42.700;23.360;2023-07-29T02:51:10;95154.94;;;20.13;72.12
3096;BME280;1558;42.700;23.360;2023-07-29T02:53:39;95110.44;;;19.77;72.05
3096;BME280;1558;42.700;23.360;2023-07-29T02:56:07;95160.50;;;19.85;71.87
3096;BME280;1558;42.700;23.360;2023-07-29T02:58:36;95151.13;;;19.65;72.25
3096;BME280;1558;42.700;23.360;2023-07-29T03:01:05;95142.94;;;19.50;72.43
3096;BME280;1558;42.700;23.360;2023-07-29T03:03:33;95163.66;;;19.51;73.07
3096;BME280;1558;42.700;23.360;2023-07-29T03:06:03;95159.72;;;19.59;72.37
3096;BME280;1558;42.700;23.360;2023-07-29T03:08:33;95171.47;;;19.60;72.79
3096;BME280;1558;42.700;23.360;2023-07-29T03:11:05;95169.09;;;19.76;71.82
3096;BME280;1558;42.700;23.360;2023-07-29T03:13:34;95171.44;;;19.71;71.18
3096;BME280;1558;42.700;23.360;2023-07-29T03:16:06;95160.50;;;19.67;71.60
3096;BME280;1558;42.700;23.360;2023-07-29T03:18:35;95174.19;;;19.85;70.71
3096;BME280;1558;42.700;23.360;2023-07-29T03:21:03;95174.56;;;19.76;70.43
3096;BME280;1558;42.700;23.360;2023-07-29T03:23:33;95174.19;;;19.64;70.25
3096;BME280;1558;42.700;23.360;2023-07-29T03:26:02;95157.41;;;19.51;70.90
3096;BME280;1558;42.700;23.360;2023-07-29T03:28:38;95162.09;;;19.50;70.57
3096;BME280;1558;42.700;23.360;2023-07-29T03:31:06;95169.09;;;19.37;71.04
3096;BME280;1558;42.700;23.360;2023-07-29T03:33:34;95170.69;;;19.38;71.40
3096;BME280;1558;42.700;23.360;2023-07-29T03:36:03;95174.16;;;19.32;71.56
3096;BME280;1558;42.700;23.360;2023-07-29T03:38:32;95187.03;;;19.21;72.35
3096;BME280;1558;42.700;23.360;2023-07-29T03:41:02;95167.88;;;19.03;72.20
3096;BME280;1558;42.700;23.360;2023-07-29T03:43:30;95178.81;;;19.14;73.12
3096;BME280;1558;42.700;23.360;2023-07-29T03:45:58;95170.63;;;19.17;72.57
3096;BME280;1558;42.700;23.360;2023-07-29T03:48:26;95126.09;;;18.99;72.52
3096;BME280;1558;42.700;23.360;2023-07-29T03:50:54;95172.19;;;19.22;72.94
3096;BME280;1558;42.700;23.360;2023-07-29T03:53:23;95183.19;;;19.39;72.51
3096;BME280;1558;42.700;23.360;2023-07-29T03:55:52;95180.81;;;19.34;71.87
3096;BME280;1558;42.700;23.360;2023-07-29T03:58:20;95177.69;;;19.32;72.41
3096;BME280;1558;42.700;23.360;2023-07-29T04:00:48;95115.16;;;19.03;72.60
3096;BME280;1558;42.700;23.360;2023-07-29T04:03:16;95164.41;;;19.27;72.56
3096;BME280;1558;42.700;23.360;2023-07-29T04:05:44;95163.59;;;19.30;72.67
3096;BME280;1558;42.700;23.360;2023-07-29T04:08:13;95124.91;;;19.04;72.79
3096;BME280;1558;42.700;23.360;2023-07-29T04:10:41;95164.00;;;19.32;72.58
3096;BME280;1558;42.700;23.360;2023-07-29T04:13:10;95189.84;;;19.42;72.35
3096;BME280;1558;42.700;23.360;2023-07-29T04:15:38;95127.63;;;19.00;72.89
3096;BME280;1558;42.700;23.360;2023-07-29T04:18:06;95188.66;;;19.43;73.24
3096;BME280;1558;42.700;23.360;2023-07-29T04:20:34;95190.59;;;19.56;72.83
3096;BME280;1558;42.700;23.360;2023-07-29T04:23:03;95170.28;;;19.43;72.86
3096;BME280;1558;42.700;23.360;2023-07-29T04:25:31;95183.19;;;19.68;72.22
3096;BME280;1558;42.700;23.360;2023-07-29T04:27:59;95169.88;;;19.70;72.11
3096;BME280;1558;42.700;23.360;2023-07-29T04:30:31;95177.69;;;19.85;71.65
3096;BME280;1558;42.700;23.360;2023-07-29T04:32:59;95161.63;;;19.87;71.06
3096;BME280;1558;42.700;23.360;2023-07-29T04:35:27;95128.44;;;19.75;70.60
3096;BME280;1558;42.700;23.360;2023-07-29T04:37:56;95177.69;;;19.85;71.04
3096;BME280;1558;42.700;23.360;2023-07-29T04:40:24;95168.28;;;19.93;70.79
3096;BME280;1558;42.700;23.360;2023-07-29T04:42:52;95186.25;;;20.15;70.82
3096;BME280;1558;42.700;23.360;2023-07-29T04:45:20;95182.34;;;20.27;70.24
3096;BME280;1558;42.700;23.360;2023-07-29T04:47:50;95177.19;;;20.43;69.92
3096;BME280;1558;42.700;23.360;2023-07-29T04:50:18;95191.97;;;20.70;69.14
3096;BME280;1558;42.700;23.360;2023-07-29T04:52:46;95191.13;;;20.80;68.35
3096;BME280;1558;42.700;23.360;2023-07-29T04:55:14;95189.06;;;21.06;67.85
3096;BME280;1558;42.700;23.360;2023-07-29T04:57:43;95171.34;;;21.69;66.77
3096;BME280;1558;42.700;23.360;2023-07-29T05:00:11;95153.00;;;22.74;64.26
3096;BME280;1558;42.700;23.360;2023-07-29T05:02:40;95182.03;;;23.35;60.83
3096;BME280;1558;42.700;23.360;2023-07-29T05:05:09;95202.34;;;23.72;60.26
3096;BME280;1558;42.700;23.360;2023-07-29T05:07:38;95186.22;;;23.70;59.05
3096;BME280;1558;42.700;23.360;2023-07-29T05:10:07;95203.53;;;23.71;58.65
3096;BME280;1558;42.700;23.360;2023-07-29T05:12:35;95213.38;;;23.95;58.45
3096;BME280;1558;42.700;23.360;2023-07-29T05:15:05;95188.78;;;24.04;57.47
3096;BME280;1558;42.700;23.360;2023-07-29T05:17:33;95203.78;;;24.26;56.97
3096;BME280;1558;42.700;23.360;2023-07-29T05:20:01;95209.97;;;24.53;55.88
3096;BME280;1558;42.700;23.360;2023-07-29T05:22:31;95172.84;;;24.77;54.70
3096;BME280;1558;42.700;23.360;2023-07-29T05:24:59;95210.53;;;25.23;54.00
3096;BME280;1558;42.700;23.360;2023-07-29T05:27:27;95198.13;;;25.99;52.44
3096;BME280;1558;42.700;23.360;2023-07-29T05:29:55;95218.44;;;26.99;49.45
3096;BME280;1558;42.700;23.360;2023-07-29T05:32:23;95215.09;;;27.58;49.09
3096;BME280;1558;42.700;23.360;2023-07-29T05:34:51;95207.69;;;28.05;46.63
3096;BME280;1558;42.700;23.360;2023-07-29T05:37:19;95148.78;;;27.76;46.13
3096;BME280;1558;42.700;23.360;2023-07-29T05:39:49;95222.75;;;28.63;46.23
3096;BME280;1558;42.700;23.360;2023-07-29T05:42:17;95217.41;;;28.56;45.02
3096;BME280;1558;42.700;23.360;2023-07-29T05:44:45;95208.25;;;28.00;45.15
3096;BME280;1558;42.700;23.360;2023-07-29T05:47:13;95207.47;;;27.62;45.79
3096;BME280;1558;42.700;23.360;2023-07-29T05:49:41;95229.97;;;27.51;46.12
3096;BME280;1558;42.700;23.360;2023-07-29T05:52:09;95228.59;;;27.30;47.26
3096;BME280;1558;42.700;23.360;2023-07-29T05:54:37;95220.00;;;28.04;46.64
3096;BME280;1558;42.700;23.360;2023-07-29T05:57:07;95222.97;;;28.56;45.82
3096;BME280;1558;42.700;23.360;2023-07-29T05:59:35;95213.16;;;28.43;44.77
3096;BME280;1558;42.700;23.360;2023-07-29T06:02:04;95212.88;;;28.84;44.03
3096;BME280;1558;42.700;23.360;2023-07-29T06:04:33;95165.38;;;29.13;42.92
3096;BME280;1558;42.700;23.360;2023-07-29T06:07:01;95219.47;;;29.73;43.07
3096;BME280;1558;42.700;23.360;2023-07-29T06:09:29;95220.69;;;28.98;43.35
3096;BME280;1558;42.700;23.360;2023-07-29T06:11:57;95216.41;;;29.19;43.85
3096;BME280;1558;42.700;23.360;2023-07-29T06:14:26;95217.34;;;29.03;43.70
3096;BME280;1558;42.700;23.360;2023-07-29T06:16:54;95219.53;;;29.08;42.89
3096;BME280;1558;42.700;23.360;2023-07-29T06:19:22;95210.72;;;29.53;43.31
3096;BME280;1558;42.700;23.360;2023-07-29T06:21:51;95201.38;;;30.17;42.38
3096;BME280;1558;42.700;23.360;2023-07-29T06:24:19;95206.84;;;30.30;41.16
3096;BME280;1558;42.700;23.360;2023-07-29T06:26:47;95202.25;;;29.87;41.78
3096;BME280;1558;42.700;23.360;2023-07-29T06:29:15;95204.72;;;29.55;42.06
3096;BME280;1558;42.700;23.360;2023-07-29T06:31:44;95215.28;;;29.38;42.01
3096;BME280;1558;42.700;23.360;2023-07-29T06:34:12;95202.00;;;29.73;41.74
3096;BME280;1558;42.700;23.360;2023-07-29T06:36:40;95153.88;;;30.03;40.81
3096;BME280;1558;42.700;23.360;2023-07-29T06:39:08;95197.13;;;29.86;40.70
3096;BME280;1558;42.700;23.360;2023-07-29T06:41:36;95202.66;;;29.46;42.78
3096;BME280;1558;42.700;23.360;2023-07-29T06:44:04;95201.69;;;30.10;41.25
3096;BME280;1558;42.700;23.360;2023-07-29T06:46:32;95195.59;;;29.94;41.09
3096;BME280;1558;42.700;23.360;2023-07-29T06:49:02;95189.66;;;30.32;41.05
3096;BME280;1558;42.700;23.360;2023-07-29T06:51:30;95131.22;;;30.68;40.68
3096;BME280;1558;42.700;23.360;2023-07-29T06:54:01;95190.31;;;31.08;39.00
3096;BME280;1558;42.700;23.360;2023-07-29T06:56:29;95185.66;;;31.14;38.90
3096;BME280;1558;42.700;23.360;2023-07-29T06:58:58;95174.25;;;30.94;38.56
3096;BME280;1558;42.700;23.360;2023-07-29T07:01:26;95193.88;;;31.18;39.32
3096;BME280;1558;42.700;23.360;2023-07-29T07:03:54;95190.38;;;32.48;37.63
3096;BME280;1558;42.700;23.360;2023-07-29T07:06:26;95194.66;;;32.11;36.82
3096;BME280;1558;42.700;23.360;2023-07-29T07:08:54;95188.31;;;32.58;36.28
3096;BME280;1558;42.700;23.360;2023-07-29T07:11:22;95189.13;;;32.49;37.03
3096;BME280;1558;42.700;23.360;2023-07-29T07:13:50;95192.25;;;31.95;36.43
3096;BME280;1558;42.700;23.360;2023-07-29T07:16:18;95184.13;;;32.06;36.80
3096;BME280;1558;42.700;23.360;2023-07-29T07:18:47;95178.75;;;32.50;36.77
3096;BME280;1558;42.700;23.360;2023-07-29T07:21:15;95182.66;;;33.20;35.68
3096;BME280;1558;42.700;23.360;2023-07-29T07:23:44;95186.88;;;33.88;35.42
3096;BME280;1558;42.700;23.360;2023-07-29T07:26:12;95187.31;;;33.67;35.00
3096;BME280;1558;42.700;23.360;2023-07-29T07:28:41;95185.19;;;33.62;34.77
3096;BME280;1558;42.700;23.360;2023-07-29T07:31:09;95184.50;;;33.37;35.00
3096;BME280;1558;42.700;23.360;2023-07-29T07:33:37;95089.50;;;32.46;34.96
3096;BME280;1558;42.700;23.360;2023-07-29T07:36:05;95185.84;;;32.74;35.17
3096;BME280;1558;42.700;23.360;2023-07-29T07:38:33;95187.16;;;32.17;35.94
3096;BME280;1558;42.700;23.360;2023-07-29T07:41:02;95141.81;;;32.46;35.57
3096;BME280;1558;42.700;23.360;2023-07-29T07:43:33;95173.66;;;33.01;35.80
3096;BME280;1558;42.700;23.360;2023-07-29T07:46:01;95178.84;;;33.61;34.73
3096;BME280;1558;42.700;23.360;2023-07-29T07:48:30;95155.09;;;34.06;34.15
3096;BME280;1558;42.700;23.360;2023-07-29T07:50:59;95177.94;;;34.19;33.37
3096;BME280;1558;42.700;23.360;2023-07-29T07:53:27;95174.06;;;34.17;33.92
3096;BME280;1558;42.700;23.360;2023-07-29T07:55:55;95153.16;;;34.72;32.67
3096;BME280;1558;42.700;23.360;2023-07-29T07:58:25;95172.44;;;34.65;32.15
3096;BME280;1558;42.700;23.360;2023-07-29T08:01:00;95195.16;;;33.97;32.87
3096;BME280;1558;42.700;23.360;2023-07-29T08:03:29;95181.97;;;34.33;32.79
3096;BME280;1558;42.700;23.360;2023-07-29T08:05:57;95167.28;;;33.88;31.94
3096;BME280;1558;42.700;23.360;2023-07-29T08:08:25;95180.25;;;34.41;32.01
3096;BME280;1558;42.700;23.360;2023-07-29T08:10:54;95160.22;;;34.88;31.60
3096;BME280;1558;42.700;23.360;2023-07-29T08:13:25;95183.00;;;35.47;31.08
3096;BME280;1558;42.700;23.360;2023-07-29T08:15:53;95164.31;;;35.38;30.73
3096;BME280;1558;42.700;23.360;2023-07-29T08:18:21;95180.81;;;35.31;30.01
3096;BME280;1558;42.700;23.360;2023-07-29T08:20:52;95176.97;;;34.42;32.09
3096;BME280;1558;42.700;23.360;2023-07-29T08:23:22;95175.00;;;34.48;32.89
3096;BME280;1558;42.700;23.360;2023-07-29T08:25:52;95178.88;;;34.51;32.49
3096;BME280;1558;42.700;23.360;2023-07-29T08:28:20;95178.00;;;34.45;32.50
3096;BME280;1558;42.700;23.360;2023-07-29T08:30:50;95168.00;;;34.38;32.53
3096;BME280;1558;42.700;23.360;2023-07-29T08:33:18;95172.38;;;34.59;32.08
3096;BME280;1558;42.700;23.360;2023-07-29T08:35:46;95170.09;;;34.43;32.41
3096;BME280;1558;42.700;23.360;2023-07-29T08:38:14;95177.25;;;35.30;31.18
3096;BME280;1558;42.700;23.360;2023-07-29T08:40:51;95135.91;;;35.57;29.91
3096;BME280;1558;42.700;23.360;2023-07-29T08:43:26;95160.59;;;34.55;31.29
3096;BME280;1558;42.700;23.360;2023-07-29T08:45:58;95169.19;;;34.32;31.64
3096;BME280;1558;42.700;23.360;2023-07-29T08:48:32;95165.28;;;35.61;30.49
3096;BME280;1558;42.700;23.360;2023-07-29T08:51:03;95160.56;;;35.78;30.16
3096;BME280;1558;42.700;23.360;2023-07-29T08:53:32;95146.22;;;35.71;29.31
3096;BME280;1558;42.700;23.360;2023-07-29T08:56:01;95053.34;;;35.06;29.29
3096;BME280;1558;42.700;23.360;2023-07-29T08:58:29;95137.97;;;35.56;28.90
3096;BME280;1558;42.700;23.360;2023-07-29T09:00:59;95152.00;;;35.56;29.18
3096;BME280;1558;42.700;23.360;2023-07-29T09:03:27;95140.22;;;35.89;28.04
3096;BME280;1558;42.700;23.360;2023-07-29T09:05:57;95147.78;;;35.15;28.02
3096;BME280;1558;42.700;23.360;2023-07-29T09:08:26;95145.66;;;34.64;29.21
3096;BME280;1558;42.700;23.360;2023-07-29T09:10:54;95132.59;;;35.95;27.91
3096;BME280;1558;42.700;23.360;2023-07-29T09:13:22;95122.88;;;36.92;26.90
3096;BME280;1558;42.700;23.360;2023-07-29T09:15:54;95137.81;;;37.53;26.15
3096;BME280;1558;42.700;23.360;2023-07-29T09:18:25;95123.41;;;37.07;25.80
3096;BME280;1558;42.700;23.360;2023-07-29T09:20:58;95132.50;;;36.68;26.40
3096;BME280;1558;42.700;23.360;2023-07-29T09:23:27;95123.63;;;36.28;26.46
3096;BME280;1558;42.700;23.360;2023-07-29T09:26:01;95116.34;;;36.05;27.16
3096;BME280;1558;42.700;23.360;2023-07-29T09:28:33;95121.25;;;35.78;27.31
3096;BME280;1558;42.700;23.360;2023-07-29T09:31:03;95127.34;;;35.14;27.38
3096;BME280;1558;42.700;23.360;2023-07-29T09:33:34;95125.41;;;35.00;27.87
3096;BME280;1558;42.700;23.360;2023-07-29T09:36:08;95113.50;;;35.62;26.51
3096;BME280;1558;42.700;23.360;2023-07-29T09:38:37;95118.75;;;35.86;25.35
3096;BME280;1558;42.700;23.360;2023-07-29T09:41:06;95071.91;;;34.78;27.25
3096;BME280;1558;42.700;23.360;2023-07-29T09:43:35;95051.28;;;35.75;25.95
3096;BME280;1558;42.700;23.360;2023-07-29T09:46:04;95098.50;;;35.40;26.67
3096;BME280;1558;42.700;23.360;2023-07-29T09:48:35;95095.19;;;35.78;26.83
3096;BME280;1558;42.700;23.360;2023-07-29T09:51:10;95101.84;;;36.82;25.68
3096;BME280;1558;42.700;23.360;2023-07-29T09:53:43;95100.31;;;36.81;25.81
3096;BME280;1558;42.700;23.360;2023-07-29T09:56:14;95095.72;;;36.83;24.72
3096;BME280;1558;42.700;23.360;2023-07-29T09:58:43;95090.59;;;36.82;24.96
3096;BME280;1558;42.700;23.360;2023-07-29T10:01:13;95052.47;;;36.58;23.78
3096;BME280;1558;42.700;23.360;2023-07-29T10:03:44;95094.25;;;36.99;23.58
3096;BME280;1558;42.700;23.360;2023-07-29T10:06:14;95099.28;;;36.84;23.10
3096;BME280;1558;42.700;23.360;2023-07-29T10:08:43;95091.13;;;36.91;22.84
3096;BME280;1558;42.700;23.360;2023-07-29T10:11:11;95093.38;;;36.06;24.44
3096;BME280;1558;42.700;23.360;2023-07-29T10:13:39;95091.78;;;36.47;24.10
3096;BME280;1558;42.700;23.360;2023-07-29T10:16:10;95088.63;;;37.54;24.61
3096;BME280;1558;42.700;23.360;2023-07-29T10:18:39;95071.22;;;37.72;23.86
3096;BME280;1558;42.700;23.360;2023-07-29T10:21:12;95086.84;;;37.40;24.05
3096;BME280;1558;42.700;23.360;2023-07-29T10:23:43;95037.56;;;36.41;24.26
3096;BME280;1558;42.700;23.360;2023-07-29T10:26:16;95042.06;;;36.11;24.74
3096;BME280;1558;42.700;23.360;2023-07-29T10:28:47;95060.44;;;36.82;24.02
3096;BME280;1558;42.700;23.360;2023-07-29T10:31:16;95059.09;;;36.02;24.55
3096;BME280;1558;42.700;23.360;2023-07-29T10:33:44;95041.50;;;36.07;24.72
3096;BME280;1558;42.700;23.360;2023-07-29T10:36:15;95052.72;;;36.72;24.58
3096;BME280;1558;42.700;23.360;2023-07-29T10:38:44;95046.41;;;37.21;24.25
3096;BME280;1558;42.700;23.360;2023-07-29T10:41:12;95047.09;;;37.82;23.38
3096;BME280;1558;42.700;23.360;2023-07-29T10:43:40;95049.97;;;37.55;23.17
3096;BME280;1558;42.700;23.360;2023-07-29T10:46:16;95037.72;;;37.41;22.94
3096;BME280;1558;42.700;23.360;2023-07-29T10:48:52;95036.41;;;37.31;22.86
3096;BME280;1558;42.700;23.360;2023-07-29T10:51:30;95038.75;;;37.10;22.20
3096;BME280;1558;42.700;23.360;2023-07-29T10:54:01;95042.03;;;36.87;22.82
3096;BME280;1558;42.700;23.360;2023-07-29T10:56:30;95017.41;;;37.81;22.62
3096;BME280;1558;42.700;23.360;2023-07-29T10:59:03;95000.16;;;38.13;22.74
3096;BME280;1558;42.700;23.360;2023-07-29T11:01:52;95033.50;;;39.01;21.72
3096;BME280;1558;42.700;23.360;2023-07-29T11:04:24;95024.81;;;37.95;21.33
3096;BME280;1558;42.700;23.360;2023-07-29T11:07:22;95025.81;;;38.61;21.90
3096;BME280;1558;42.700;23.360;2023-07-29T11:10:00;95018.50;;;38.82;21.51
3096;BME280;1558;42.700;23.360;2023-07-29T11:15:15;94991.16;;;38.72;21.50
3096;BME280;1558;42.700;23.360;2023-07-29T11:17:45;95011.91;;;38.17;21.45
3096;BME280;1558;42.700;23.360;2023-07-29T11:20:15;95020.16;;;39.02;21.33
3096;BME280;1558;42.700;23.360;2023-07-29T11:22:45;94994.03;;;38.96;21.36
3096;BME280;1558;42.700;23.360;2023-07-29T11:25:15;95002.00;;;38.92;21.72
3096;BME280;1558;42.700;23.360;2023-07-29T11:27:43;95008.03;;;39.72;20.56
3096;BME280;1558;42.700;23.360;2023-07-29T11:30:12;94998.81;;;39.66;20.45
3096;BME280;1558;42.700;23.360;2023-07-29T11:32:42;95005.00;;;38.70;21.54
3096;BME280;1558;42.700;23.360;2023-07-29T11:35:11;95016.91;;;37.88;21.81
3096;BME280;1558;42.700;23.360;2023-07-29T11:37:43;95012.88;;;37.23;22.62
3096;BME280;1558;42.700;23.360;2023-07-29T11:40:15;95005.41;;;37.64;22.23
3096;BME280;1558;42.700;23.360;2023-07-29T11:42:44;94997.91;;;38.52;21.60
3096;BME280;1558;42.700;23.360;2023-07-29T11:45:13;94979.53;;;38.81;21.29
3096;BME280;1558;42.700;23.360;2023-07-29T11:47:44;94981.94;;;39.01;20.75
3096;BME280;1558;42.700;23.360;2023-07-29T11:50:13;94996.66;;;39.23;20.22
3096;BME280;1558;42.700;23.360;2023-07-29T11:52:42;94957.00;;;39.35;19.99
3096;BME280;1558;42.700;23.360;2023-07-29T11:55:12;94992.47;;;39.60;20.17
3096;BME280;1558;42.700;23.360;2023-07-29T11:57:43;94959.75;;;39.70;20.05
3096;BME280;1558;42.700;23.360;2023-07-29T12:00:12;94989.78;;;40.16;20.03
3096;BME280;1558;42.700;23.360;2023-07-29T12:02:42;94988.88;;;39.59;19.62
3096;BME280;1558;42.700;23.360;2023-07-29T12:05:14;94988.94;;;39.24;20.90
3096;BME280;1558;42.700;23.360;2023-07-29T12:07:44;94983.09;;;39.46;20.48
3096;BME280;1558;42.700;23.360;2023-07-29T12:10:12;94964.06;;;38.87;20.11
3096;BME280;1558;42.700;23.360;2023-07-29T12:12:45;94979.63;;;38.64;20.71
3096;BME280;1558;42.700;23.360;2023-07-29T12:15:22;94966.63;;;38.04;20.57
3096;BME280;1558;42.700;23.360;2023-07-29T12:17:53;94967.22;;;37.85;21.09
3096;BME280;1558;42.700;23.360;2023-07-29T12:20:23;94943.16;;;37.73;21.11
3096;BME280;1558;42.700;23.360;2023-07-29T12:22:53;94942.50;;;37.40;21.69
3096;BME280;1558;42.700;23.360;2023-07-29T12:25:22;94924.31;;;37.35;21.54
3096;BME280;1558;42.700;23.360;2023-07-29T12:27:51;94945.16;;;37.89;22.21
3096;BME280;1558;42.700;23.360;2023-07-29T12:30:23;94944.72;;;38.26;21.32
3096;BME280;1558;42.700;23.360;2023-07-29T12:32:52;94920.97;;;37.53;21.37
3096;BME280;1558;42.700;23.360;2023-07-29T12:35:21;94956.38;;;36.99;22.21
3096;BME280;1558;42.700;23.360;2023-07-29T12:37:58;94951.47;;;36.88;21.95
3096;BME280;1558;42.700;23.360;2023-07-29T12:40:27;94957.13;;;36.94;22.38
3096;BME280;1558;42.700;23.360;2023-07-29T12:42:56;94944.31;;;36.76;22.43
3096;BME280;1558;42.700;23.360;2023-07-29T12:45:25;94944.84;;;36.75;22.39
3096;BME280;1558;42.700;23.360;2023-07-29T12:47:56;94949.97;;;37.04;22.22
3096;BME280;1558;42.700;23.360;2023-07-29T12:50:24;94939.97;;;36.58;22.92
3096;BME280;1558;42.700;23.360;2023-07-29T12:52:52;94943.16;;;36.07;22.79
3096;BME280;1558;42.700;23.360;2023-07-29T12:55:21;94935.31;;;36.28;22.36
3096;BME280;1558;42.700;23.360;2023-07-29T12:57:52;94910.00;;;36.22;22.45
3096;BME280;1558;42.700;23.360;2023-07-29T13:00:21;94946.34;;;36.48;21.82
3096;BME280;1558;42.700;23.360;2023-07-29T13:02:49;94938.84;;;35.53;23.12
3096;BME280;1558;42.700;23.360;2023-07-29T13:05:18;94934.13;;;35.75;23.01
3096;BME280;1558;42.700;23.360;2023-07-29T13:07:46;94938.50;;;35.93;23.14
3096;BME280;1558;42.700;23.360;2023-07-29T13:10:14;94916.22;;;35.67;23.54
3096;BME280;1558;42.700;23.360;2023-07-29T13:12:42;94936.41;;;35.29;23.22
3096;BME280;1558;42.700;23.360;2023-07-29T13:15:11;94932.59;;;35.32;23.77
3096;BME280;1558;42.700;23.360;2023-07-29T13:17:42;94932.69;;;35.49;23.16
3096;BME280;1558;42.700;23.360;2023-07-29T13:20:10;94925.97;;;35.88;22.70
3096;BME280;1558;42.700;23.360;2023-07-29T13:22:39;94902.22;;;35.25;22.68
3096;BME280;1558;42.700;23.360;2023-07-29T13:25:07;94928.59;;;35.50;22.36
3096;BME280;1558;42.700;23.360;2023-07-29T13:27:38;94915.66;;;35.58;22.22